CYLK

Lutselk'e Airport

Lutselk'e, Northwest Territories, Canada
METAR CYLK 180100Z 32002KT 25SM SKC M34/M39 A3044 RMK M/M/0/28 SNW CVR/MUCH LOOSE LAST STFD OBS/NEXT 181500 UTC WND ESTD SLP342
Observed Flight Rules
Jan-18 @ 01:00 UTC (13 hours ago) Visual Flight Rules
Wind Visibility Clouds
320° at 2 knots 25 miles
  • Clear skies
Temperatures Readings
Current -34°C / -29°F
Dewpoint -39°C / -38°F
Humidity 60%
Altimeter 30.44" Hg
Pressure 1034.2 hPa
Elevation 179
METAR CYLK 180100Z 32002KT 25SM SKC M34/M39 A3044 RMK M/M/0/28 SNW CVR/MUCH LOOSE LAST STFD OBS/NEXT 181500 UTC WND ESTD SLP342
Observed Flight Rules
Jan-18 @ 01:00 UTC
(13 hours ago)
VFR
Wind Visibility
320° at 2 knots 25 miles
Clouds
  • Clear skies
Temperature Dewpoint
-34°C / -29°F -39°C / -38°F
Humidity Altimeter Pressure
60% 30.44" Hg 1034.2 hPa